Time;durP1;ratioP1;P1;durP2;ratioP2;P2;SDS_P1;SDS_P2;PMS_P1;PMS_P2;Temp;Humidity;BMP_temperature;BMP_pressure;BME280_temperature;BME280_humidity;BME280_pressure;Samples;Min_cycle;Max_cycle;Signal;HPM_P1;HPM_P2
2021/12/03 00:00:50;;;;;;;1.63;0.20;;;1.30;99.90;;;;;;4996150;28;20375;-77
2021/12/03 00:03:16;;;;;;;1.92;0.10;;;1.30;99.90;;;;;;4979007;28;20089;-77
2021/12/03 00:05:42;;;;;;;2.65;0.22;;;1.40;99.90;;;;;;4996715;28;20030;-77
2021/12/03 00:08:08;;;;;;;1.45;0.10;;;1.40;99.90;;;;;;4996568;28;20081;-77
2021/12/03 00:10:36;;;;;;;0.98;0.20;;;1.30;99.90;;;;;;4996532;28;20030;-77
2021/12/03 00:13:04;;;;;;;8.40;0.50;;;1.40;99.90;;;;;;4996443;28;20022;-77
2021/12/03 00:15:30;;;;;;;1.88;0.40;;;1.30;99.90;;;;;;4995577;28;20031;-77
2021/12/03 00:17:56;;;;;;;3.83;0.25;;;1.40;99.90;;;;;;4978688;28;20113;-77
2021/12/03 00:20:24;;;;;;;4.18;0.17;;;1.40;99.90;;;;;;4996107;28;20058;-77
2021/12/03 00:22:53;;;;;;;4.00;0.50;;;1.40;99.90;;;;;;4996387;28;20018;-77
2021/12/03 00:25:19;;;;;;;2.90;0.08;;;1.40;99.90;;;;;;4996408;28;20446;-77
2021/12/03 00:27:45;;;;;;;17.30;0.90;;;1.40;99.90;;;;;;4996505;28;20050;-77
2021/12/03 00:30:12;;;;;;;6.45;0.17;;;1.40;99.90;;;;;;4996187;28;20057;-77
2021/12/03 00:32:39;;;;;;;2.50;0.28;;;1.40;99.90;;;;;;4995940;28;20022;-77
2021/12/03 00:35:06;;;;;;;1.27;0.10;;;1.40;99.90;;;;;;4995985;28;20100;-77
2021/12/03 00:37:31;;;;;;;5.35;0.40;;;1.50;99.90;;;;;;4995897;28;20062;-77
2021/12/03 00:39:58;;;;;;;1.10;0.28;;;1.40;99.90;;;;;;4995683;28;20030;-77
2021/12/03 00:42:25;;;;;;;0.30;0.10;;;1.40;99.90;;;;;;4995891;28;20026;-77
2021/12/03 00:44:54;;;;;;;2.08;0.15;;;1.40;99.90;;;;;;4978569;28;20026;-77
2021/12/03 00:47:20;;;;;;;4.10;0.20;;;1.50;99.90;;;;;;4978421;28;20054;-77
2021/12/03 00:49:46;;;;;;;2.80;0.28;;;1.40;99.90;;;;;;4978387;28;20455;-77
2021/12/03 00:52:13;;;;;;;4.22;0.40;;;1.50;99.90;;;;;;4977927;28;20064;-77
2021/12/03 00:54:38;;;;;;;8.80;0.85;;;1.50;99.90;;;;;;4995084;28;20026;-77
2021/12/03 00:57:04;;;;;;;3.50;0.55;;;1.50;99.90;;;;;;4978101;28;20061;-77
2021/12/03 00:59:30;;;;;;;2.90;0.40;;;1.40;99.90;;;;;;4977776;28;20026;-77
2021/12/03 01:01:56;;;;;;;1.48;0.43;;;1.40;99.90;;;;;;4995481;28;20047;-77
2021/12/03 01:04:22;;;;;;;3.53;0.35;;;1.50;99.90;;;;;;4995312;28;20053;-77
2021/12/03 01:06:48;;;;;;;1.42;0.30;;;1.50;99.90;;;;;;4977932;28;20023;-77
2021/12/03 01:09:14;;;;;;;5.97;1.05;;;1.50;99.90;;;;;;4995340;28;20034;-77
2021/12/03 01:11:39;;;;;;;3.00;0.40;;;1.40;99.90;;;;;;4995534;28;20049;-77
2021/12/03 01:14:05;;;;;;;2.65;0.35;;;1.40;99.90;;;;;;4995919;28;20018;-77
2021/12/03 01:16:32;;;;;;;1.60;0.35;;;1.40;99.90;;;;;;4995103;28;20033;-77
2021/12/03 01:18:58;;;;;;;1.33;0.20;;;1.40;99.90;;;;;;4995071;28;20403;-77
2021/12/03 01:21:24;;;;;;;4.43;0.50;;;1.40;99.90;;;;;;4977949;28;20023;-77
2021/12/03 01:23:50;;;;;;;6.55;0.80;;;1.40;99.90;;;;;;4977902;28;20058;-77
2021/12/03 01:26:16;;;;;;;3.40;0.20;;;1.40;99.90;;;;;;4995325;28;20032;-77
2021/12/03 01:28:42;;;;;;;3.72;0.52;;;1.50;99.90;;;;;;4995172;28;20480;-77
2021/12/03 01:31:08;;;;;;;2.80;0.63;;;1.50;99.90;;;;;;4995227;28;20081;-77
2021/12/03 01:33:34;;;;;;;1.13;0.10;;;1.50;99.90;;;;;;4995158;28;20475;-77
2021/12/03 01:36:00;;;;;;;2.85;0.20;;;1.50;99.90;;;;;;4995013;28;20449;-77
2021/12/03 01:38:26;;;;;;;0.80;0.10;;;1.50;99.90;;;;;;4994874;28;20023;-77
2021/12/03 01:40:51;;;;;;;3.83;0.60;;;1.50;99.90;;;;;;4977774;28;20168;-77
2021/12/03 01:43:27;;;;;;;3.88;0.30;;;1.60;99.90;;;;;;4977812;28;20022;-77
2021/12/03 01:46:02;;;;;;;4.80;1.38;;;1.50;99.90;;;;;;4995169;28;20395;-77
2021/12/03 01:48:28;;;;;;;0.57;0.03;;;1.60;99.90;;;;;;4977340;28;20495;-77
2021/12/03 01:50:55;;;;;;;5.43;0.10;;;1.60;99.90;;;;;;4994491;28;20030;-77
2021/12/03 01:53:25;;;;;;;2.70;0.10;;;1.60;99.90;;;;;;4996074;28;20050;-77
2021/12/03 01:55:53;;;;;;;0.63;0.00;;;1.60;99.90;;;;;;4998886;28;20026;-77
2021/12/03 01:58:19;;;;;;;6.90;0.40;;;1.70;99.90;;;;;;4981318;28;20402;-77
2021/12/03 02:00:53;;;;;;;0.90;0.00;;;1.70;99.90;;;;;;4998673;28;20022;-77
2021/12/03 02:03:21;;;;;;;0.82;0.10;;;1.70;99.90;;;;;;4981371;28;20030;-77
2021/12/03 02:05:46;;;;;;;1.80;0.00;;;1.70;99.90;;;;;;4981548;28;20036;-77
2021/12/03 02:08:12;;;;;;;0.57;0.00;;;1.70;99.90;;;;;;4998720;28;20086;-77
2021/12/03 02:10:39;;;;;;;0.45;0.30;;;1.80;99.90;;;;;;4981040;28;20506;-77
2021/12/03 02:13:05;;;;;;;0.88;0.20;;;1.80;99.90;;;;;;4980775;28;20054;-77
2021/12/03 02:15:30;;;;;;;3.17;0.10;;;1.80;99.90;;;;;;4980614;28;20096;-77
2021/12/03 02:17:56;;;;;;;3.03;0.03;;;1.80;99.90;;;;;;4998776;28;20029;-77
2021/12/03 02:20:21;;;;;;;5.53;0.00;;;1.80;99.90;;;;;;4998748;28;20104;-78
2021/12/03 02:22:48;;;;;;;1.50;0.10;;;1.90;99.90;;;;;;4998078;28;20494;-77
2021/12/03 02:25:24;;;;;;;3.30;0.10;;;1.90;99.90;;;;;;4998725;28;20033;-77
2021/12/03 02:27:57;;;;;;;1.65;0.00;;;2.00;99.90;;;;;;4998271;28;20045;-77
2021/12/03 02:30:24;;;;;;;1.45;0.00;;;2.00;99.90;;;;;;4998343;28;20032;-77
2021/12/03 02:32:51;;;;;;;1.15;0.10;;;2.10;99.90;;;;;;4998099;28;20025;-77
2021/12/03 02:35:18;;;;;;;4.28;0.00;;;2.10;99.90;;;;;;4998420;28;20026;-77
2021/12/03 02:37:44;;;;;;;0.25;0.05;;;2.10;99.90;;;;;;4998282;28;20033;-77
2021/12/03 02:40:11;;;;;;;1.95;0.00;;;2.10;99.90;;;;;;4998334;28;20105;-77
2021/12/03 02:42:37;;;;;;;1.48;0.00;;;2.10;99.90;;;;;;4997860;28;20026;-77
2021/12/03 02:45:05;;;;;;;0.28;0.00;;;2.10;99.90;;;;;;4998364;28;20080;-77
2021/12/03 02:47:30;;;;;;;1.80;0.00;;;2.10;99.90;;;;;;4980513;28;20117;-77
2021/12/03 02:49:56;;;;;;;2.55;0.38;;;2.20;99.90;;;;;;4998207;28;20309;-77
2021/12/03 02:52:22;;;;;;;0.93;0.32;;;2.20;99.90;;;;;;4980317;28;20028;-77
2021/12/03 02:54:47;;;;;;;0.73;0.00;;;2.10;99.90;;;;;;4998098;28;20352;-77
2021/12/03 02:57:13;;;;;;;4.28;0.22;;;2.10;99.90;;;;;;4997610;28;20031;-77
2021/12/03 02:59:39;;;;;;;3.20;0.00;;;2.10;99.90;;;;;;4980526;28;20135;-77
2021/12/03 03:02:04;;;;;;;1.52;0.30;;;2.20;99.90;;;;;;4997667;28;20030;-77
2021/12/03 03:04:30;;;;;;;3.53;0.15;;;2.20;99.90;;;;;;4979928;28;20061;-77
2021/12/03 03:06:56;;;;;;;1.65;0.08;;;2.20;99.90;;;;;;4997763;28;20097;-77
2021/12/03 03:09:22;;;;;;;3.13;0.00;;;2.20;99.90;;;;;;4979966;28;20113;-77
2021/12/03 03:11:47;;;;;;;2.05;0.10;;;2.20;99.90;;;;;;4997557;28;20022;-77
2021/12/03 03:14:13;;;;;;;2.25;0.05;;;2.20;99.90;;;;;;4979901;28;20030;-77
2021/12/03 03:16:39;;;;;;;5.82;0.50;;;2.20;99.90;;;;;;4979909;28;20018;-77
2021/12/03 03:19:10;;;;;;;5.60;0.00;;;2.20;99.90;;;;;;4979910;28;20498;-77
2021/12/03 03:21:36;;;;;;;3.95;0.10;;;2.10;99.90;;;;;;4997100;28;20026;-77
2021/12/03 03:24:03;;;;;;;3.83;0.00;;;2.20;99.90;;;;;;4996912;28;20022;-77
2021/12/03 03:26:29;;;;;;;3.50;0.10;;;2.30;99.90;;;;;;4997021;28;20501;-77
2021/12/03 03:28:57;;;;;;;3.20;0.10;;;2.30;99.90;;;;;;4996902;28;20035;-77
2021/12/03 03:31:23;;;;;;;0.13;0.00;;;2.30;99.90;;;;;;4996701;28;20139;-77
2021/12/03 03:33:49;;;;;;;2.28;0.10;;;2.20;99.90;;;;;;4979147;28;20022;-76
2021/12/03 03:36:16;;;;;;;3.70;0.10;;;2.40;99.90;;;;;;4996938;28;20026;-76
2021/12/03 03:38:41;;;;;;;2.83;0.47;;;2.40;99.90;;;;;;4979161;28;20022;-77
2021/12/03 03:41:07;;;;;;;1.92;0.38;;;2.50;99.90;;;;;;4979237;28;20029;-77
2021/12/03 03:43:32;;;;;;;3.17;1.23;;;2.50;99.90;;;;;;4979189;28;20027;-76
2021/12/03 03:45:58;;;;;;;0.43;0.00;;;2.40;99.90;;;;;;4997274;28;20033;-76
2021/12/03 03:48:24;;;;;;;2.28;0.25;;;2.40;99.90;;;;;;4996480;28;20034;-77
2021/12/03 03:50:50;;;;;;;2.35;0.28;;;2.40;99.90;;;;;;4979049;28;20011;-77
2021/12/03 03:53:16;;;;;;;1.85;0.10;;;2.40;99.90;;;;;;4996530;28;20448;-77
2021/12/03 03:55:42;;;;;;;0.80;0.15;;;2.50;99.90;;;;;;4996546;28;20023;-77
2021/12/03 03:58:08;;;;;;;1.55;0.00;;;2.50;99.90;;;;;;4979073;28;20023;-77
2021/12/03 04:00:38;;;;;;;3.67;0.10;;;2.40;99.90;;;;;;4979199;28;20399;-77
2021/12/03 04:03:04;;;;;;;2.28;0.63;;;2.40;99.90;;;;;;4996696;28;20018;-77
2021/12/03 04:05:30;;;;;;;3.83;0.82;;;2.40;99.90;;;;;;4996399;28;20361;-77
2021/12/03 04:07:56;;;;;;;1.73;0.00;;;2.40;99.90;;;;;;4978648;28;20121;-77
2021/12/03 04:10:22;;;;;;;4.80;0.20;;;2.40;99.90;;;;;;4995903;28;20026;-77
2021/12/03 04:12:48;;;;;;;0.47;0.10;;;2.50;99.90;;;;;;4996226;28;20491;-77
2021/12/03 04:15:14;;;;;;;2.67;0.17;;;2.50;99.90;;;;;;4978477;28;20029;-77
2021/12/03 04:17:40;;;;;;;5.82;0.85;;;2.60;99.90;;;;;;4995879;28;20033;-77
2021/12/03 04:20:08;;;;;;;5.88;0.50;;;2.60;99.90;;;;;;4978693;28;20077;-77
2021/12/03 04:22:34;;;;;;;6.82;0.80;;;2.70;99.90;;;;;;4978820;28;20034;-77
2021/12/03 04:25:01;;;;;;;7.78;0.30;;;2.80;99.90;;;;;;4978684;28;20400;-77
2021/12/03 04:27:27;;;;;;;1.67;0.25;;;2.80;99.90;;;;;;4995698;28;20446;-77
2021/12/03 04:29:52;;;;;;;2.33;0.30;;;2.90;99.90;;;;;;4996288;28;20026;-77
2021/12/03 04:32:19;;;;;;;3.30;0.30;;;2.90;99.90;;;;;;4996205;28;20022;-77
2021/12/03 04:34:45;;;;;;;8.30;0.80;;;3.00;99.90;;;;;;4996140;28;20026;-77
2021/12/03 04:37:11;;;;;;;6.57;0.60;;;3.00;99.90;;;;;;4995941;28;20030;-77
2021/12/03 04:39:36;;;;;;;4.00;0.60;;;3.00;99.90;;;;;;4978533;28;20099;-77
2021/12/03 04:42:02;;;;;;;3.33;0.63;;;3.00;99.90;;;;;;4978277;28;20026;-77
2021/12/03 04:44:28;;;;;;;3.10;0.80;;;3.10;99.90;;;;;;4995630;28;20042;-77
2021/12/03 04:46:53;;;;;;;2.75;1.35;;;3.00;99.90;;;;;;4995351;28;20030;-77
2021/12/03 04:49:19;;;;;;;3.85;1.05;;;3.00;99.90;;;;;;4978084;28;20072;-77
2021/12/03 04:51:44;;;;;;;5.30;1.38;;;2.90;99.90;;;;;;4995559;28;20035;-77
2021/12/03 04:54:10;;;;;;;5.45;1.50;;;2.90;99.90;;;;;;4995993;28;20065;-77
2021/12/03 04:56:45;;;;;;;8.43;1.33;;;2.90;99.90;;;;;;4996013;28;20022;-79
2021/12/03 04:59:10;;;;;;;5.55;1.48;;;2.90;99.90;;;;;;4995537;28;20023;-77
2021/12/03 05:01:38;;;;;;;3.80;1.00;;;2.80;99.90;;;;;;4995736;28;20033;-76
2021/12/03 05:04:03;;;;;;;4.55;1.50;;;2.90;99.90;;;;;;4995989;28;20059;-76
2021/12/03 05:06:31;;;;;;;3.58;1.20;;;2.90;99.90;;;;;;4996765;28;20084;-76
2021/12/03 05:08:57;;;;;;;6.18;1.05;;;2.90;99.90;;;;;;4996016;28;20054;-74
2021/12/03 05:11:22;;;;;;;4.60;1.13;;;3.00;99.90;;;;;;4995805;28;20431;-73
2021/12/03 05:13:48;;;;;;;6.63;1.65;;;2.90;99.90;;;;;;4995669;28;20379;-74
2021/12/03 05:16:14;;;;;;;6.35;1.63;;;2.90;99.90;;;;;;4995615;28;20050;-74
2021/12/03 05:18:44;;;;;;;4.30;0.70;;;2.90;99.90;;;;;;4995608;28;20022;-73
2021/12/03 05:21:09;;;;;;;4.55;0.70;;;2.90;99.90;;;;;;4977942;28;20050;-73
2021/12/03 05:23:35;;;;;;;2.78;0.63;;;2.90;99.90;;;;;;4977346;28;20561;-73
2021/12/03 05:26:01;;;;;;;12.07;1.85;;;3.00;99.90;;;;;;4995224;28;20034;-73
2021/12/03 05:28:28;;;;;;;6.07;1.30;;;3.00;99.90;;;;;;4995576;28;20035;-73
2021/12/03 05:30:54;;;;;;;6.18;1.00;;;3.10;99.90;;;;;;4977848;28;20057;-74
2021/12/03 05:33:22;;;;;;;5.60;1.20;;;3.00;99.90;;;;;;4994972;28;20391;-74
2021/12/03 05:35:48;;;;;;;5.47;1.42;;;3.10;99.90;;;;;;4995083;28;20041;-73
2021/12/03 05:38:14;;;;;;;5.18;1.58;;;3.10;99.90;;;;;;4995011;28;20037;-74
2021/12/03 05:40:40;;;;;;;9.55;1.92;;;3.10;99.90;;;;;;4994455;28;20077;-73
2021/12/03 05:43:06;;;;;;;10.23;1.75;;;3.20;99.90;;;;;;4995155;28;20026;-73
2021/12/03 05:45:34;;;;;;;6.93;2.38;;;3.10;99.90;;;;;;4994625;28;20050;-74
2021/12/03 05:48:00;;;;;;;13.40;2.78;;;3.20;99.90;;;;;;4994474;28;20039;-74
2021/12/03 05:50:27;;;;;;;6.35;1.90;;;3.10;99.90;;;;;;4994486;28;20022;-74
2021/12/03 05:52:53;;;;;;;7.28;2.53;;;3.20;99.90;;;;;;4994640;28;20026;-74
2021/12/03 05:55:19;;;;;;;11.48;2.83;;;3.20;99.90;;;;;;4994486;28;20070;-74
2021/12/03 05:57:47;;;;;;;16.05;2.67;;;3.20;99.90;;;;;;4994704;28;20033;-74
2021/12/03 06:00:28;;;;;;;9.15;2.90;;;3.20;99.90;;;;;;4982675;28;20121;-73
2021/12/03 06:02:54;;;;;;;7.65;2.20;;;3.20;99.90;;;;;;4983880;28;20026;-73
2021/12/03 06:05:22;;;;;;;13.63;2.75;;;3.20;99.90;;;;;;4982373;28;20026;-73
2021/12/03 06:07:47;;;;;;;11.43;2.40;;;3.20;99.90;;;;;;4981908;28;20031;-72
2021/12/03 06:10:13;;;;;;;8.63;2.47;;;3.20;99.90;;;;;;4997645;28;20033;-72
2021/12/03 06:12:38;;;;;;;5.40;2.05;;;3.20;99.90;;;;;;4996444;28;20027;-72
2021/12/03 06:15:04;;;;;;;13.90;3.65;;;3.30;99.90;;;;;;4996165;28;20522;-72
2021/12/03 06:17:30;;;;;;;5.45;1.98;;;3.30;99.90;;;;;;4998596;28;20034;-73
2021/12/03 06:19:55;;;;;;;6.45;2.65;;;3.30;99.90;;;;;;5002876;28;20033;-73
2021/12/03 06:22:21;;;;;;;7.55;2.63;;;3.30;99.90;;;;;;4986774;28;20056;-73
2021/12/03 06:24:47;;;;;;;16.65;3.03;;;3.40;99.90;;;;;;4984023;28;20023;-73
2021/12/03 06:27:12;;;;;;;14.52;2.53;;;3.30;99.90;;;;;;4997621;28;20472;-73
2021/12/03 06:29:38;;;;;;;10.98;2.30;;;3.30;99.90;;;;;;4994591;28;20026;-71
2021/12/03 06:32:04;;;;;;;13.07;2.97;;;3.30;99.90;;;;;;4976659;28;20031;-71
2021/12/03 06:34:30;;;;;;;11.88;2.33;;;3.30;99.90;;;;;;4975222;28;20110;-71
2021/12/03 06:36:55;;;;;;;8.68;1.48;;;3.30;99.90;;;;;;4958959;28;20118;-72
2021/12/03 06:39:21;;;;;;;15.52;2.13;;;3.30;99.90;;;;;;4977679;28;20387;-72
2021/12/03 06:41:46;;;;;;;13.63;2.90;;;3.30;99.90;;;;;;4997212;28;20527;-71
2021/12/03 06:44:13;;;;;;;5.72;1.80;;;3.30;99.90;;;;;;4980264;28;20026;-71
2021/12/03 06:46:38;;;;;;;12.38;2.55;;;3.30;99.90;;;;;;4997375;28;20027;-72
2021/12/03 06:49:04;;;;;;;7.68;2.03;;;3.30;99.90;;;;;;4980076;28;20049;-72
2021/12/03 06:51:31;;;;;;;11.05;2.17;;;3.30;99.90;;;;;;4997775;28;20030;-72
2021/12/03 06:54:02;;;;;;;11.20;1.73;;;3.40;99.90;;;;;;4996780;28;20027;-71
2021/12/03 06:57:11;;;;;;;8.88;1.80;;;3.40;99.90;;;;;;4980615;28;20022;-72
2021/12/03 06:59:22;;;;;;;11.77;2.03;;;3.30;99.90;;;;;;4987512;28;20069;-72
2021/12/03 07:01:49;;;;;;;8.95;1.90;;;3.30;99.90;;;;;;4998971;28;20049;-73
2021/12/03 07:04:14;;;;;;;9.55;2.53;;;3.40;99.90;;;;;;4982304;28;20030;-75
2021/12/03 07:06:40;;;;;;;7.78;1.63;;;3.40;99.90;;;;;;4981036;28;20033;-74
2021/12/03 07:09:06;;;;;;;13.82;2.40;;;3.50;99.90;;;;;;4980397;28;20113;-73
2021/12/03 07:11:32;;;;;;;8.13;1.55;;;3.40;99.90;;;;;;4997513;28;20025;-73
2021/12/03 07:13:58;;;;;;;9.43;2.67;;;3.50;99.90;;;;;;4997862;28;20113;-74
2021/12/03 07:16:24;;;;;;;6.38;1.80;;;3.40;99.90;;;;;;4980908;28;20060;-74
2021/12/03 07:18:49;;;;;;;12.82;1.23;;;3.40;99.90;;;;;;4980316;28;20061;-73
2021/12/03 07:21:15;;;;;;;6.05;1.95;;;3.40;99.90;;;;;;4997484;28;20046;-73
2021/12/03 07:23:41;;;;;;;11.88;1.00;;;3.40;99.90;;;;;;4996487;28;20110;-73
2021/12/03 07:26:07;;;;;;;13.43;2.63;;;3.50;99.90;;;;;;4997281;28;20054;-73
2021/12/03 07:28:33;;;;;;;5.00;1.20;;;3.50;99.90;;;;;;4995997;28;20038;-73
2021/12/03 07:30:59;;;;;;;7.50;1.15;;;3.50;99.90;;;;;;4979586;28;20027;-73
2021/12/03 07:33:27;;;;;;;5.88;1.23;;;3.50;99.90;;;;;;4997621;28;20027;-73
2021/12/03 07:35:53;;;;;;;5.30;1.83;;;;;;;;;;4997452;28;20025;-73
2021/12/03 07:38:19;;;;;;;6.85;1.23;;;3.50;99.90;;;;;;4997584;28;20042;-73
2021/12/03 07:40:46;;;;;;;7.47;1.35;;;3.50;99.90;;;;;;4979665;28;20030;-73
2021/12/03 07:43:11;;;;;;;18.98;2.33;;;3.40;99.90;;;;;;4979583;28;20026;-73
2021/12/03 07:45:37;;;;;;;8.18;1.67;;;3.40;99.90;;;;;;4997867;28;20045;-73
2021/12/03 07:48:06;;;;;;;6.75;1.30;;;3.40;99.90;;;;;;4997370;28;20026;-73
2021/12/03 07:50:35;;;;;;;15.45;2.60;;;3.40;99.90;;;;;;4997164;28;20019;-73
2021/12/03 07:53:01;;;;;;;8.30;1.30;;;3.40;99.90;;;;;;4979785;28;20023;-73
2021/12/03 07:55:26;;;;;;;9.77;1.52;;;3.40;99.90;;;;;;4994551;28;20029;-73
2021/12/03 07:57:53;;;;;;;10.63;1.35;;;3.30;99.90;;;;;;4995097;28;20023;-73
2021/12/03 08:00:19;;;;;;;9.55;1.23;;;3.30;99.90;;;;;;4996674;28;20026;-73
2021/12/03 08:02:44;;;;;;;7.35;1.40;;;3.40;99.90;;;;;;4996155;28;20096;-73
2021/12/03 08:05:10;;;;;;;10.65;1.48;;;3.40;99.90;;;;;;4979260;28;20030;-72
2021/12/03 08:07:36;;;;;;;6.90;1.92;;;3.40;99.90;;;;;;4996641;28;20030;-73
2021/12/03 08:10:03;;;;;;;6.65;1.15;;;3.40;99.90;;;;;;4996858;28;20042;-73
2021/12/03 08:12:28;;;;;;;11.57;1.83;;;3.40;99.90;;;;;;4993955;28;20029;-73
2021/12/03 08:14:54;;;;;;;8.98;1.80;;;3.40;99.90;;;;;;4987218;28;20554;-73
2021/12/03 08:17:19;;;;;;;8.55;1.50;;;3.40;99.90;;;;;;4996628;28;20022;-73
2021/12/03 08:19:45;;;;;;;5.97;1.05;;;3.40;99.90;;;;;;4979298;28;20019;-73
2021/12/03 08:22:11;;;;;;;6.03;1.35;;;3.40;99.90;;;;;;4979129;28;20061;-73
2021/12/03 08:24:36;;;;;;;4.07;0.82;;;3.30;99.90;;;;;;4996195;28;20432;-72
2021/12/03 08:27:02;;;;;;;8.93;1.23;;;3.30;99.90;;;;;;4997237;28;20473;-74
2021/12/03 08:29:28;;;;;;;4.20;0.90;;;3.30;99.90;;;;;;4996145;28;20030;-74
2021/12/03 08:31:53;;;;;;;8.65;1.77;;;3.30;99.90;;;;;;4996335;28;20026;-74
2021/12/03 08:34:19;;;;;;;5.18;0.95;;;3.30;99.90;;;;;;4997022;28;20022;-74
2021/12/03 08:36:44;;;;;;;5.18;1.75;;;3.30;99.90;;;;;;5002104;28;20503;-74
2021/12/03 08:39:10;;;;;;;11.02;2.35;;;3.30;99.90;;;;;;4984851;28;20023;-75
2021/12/03 08:41:36;;;;;;;15.48;2.80;;;3.30;99.90;;;;;;4985572;28;20116;-73
2021/12/03 08:44:03;;;;;;;13.40;2.20;;;3.30;99.90;;;;;;4985484;28;20487;-73
2021/12/03 08:46:32;;;;;;;12.75;2.50;;;3.40;99.90;;;;;;4986051;28;20034;-73
2021/12/03 08:49:08;;;;;;;13.13;2.53;;;3.30;99.90;;;;;;5005011;28;20029;-73
2021/12/03 08:51:49;;;;;;;13.57;1.88;;;3.40;99.90;;;;;;4987509;28;20026;-73
2021/12/03 08:56:59;;;;;;;15.02;2.00;;;3.50;99.90;;;;;;5004457;28;20400;-73
2021/12/03 08:59:26;;;;;;;15.35;1.95;;;3.50;99.90;;;;;;5004228;28;20491;-73
2021/12/03 09:01:52;;;;;;;13.43;1.33;;;4.20;99.90;;;;;;5005099;28;20026;-73
2021/12/03 09:04:17;;;;;;;9.35;1.70;;;3.60;99.90;;;;;;4987870;28;20066;-73
2021/12/03 09:06:43;;;;;;;16.92;3.15;;;3.50;99.90;;;;;;5004858;28;20057;-73
2021/12/03 09:09:09;;;;;;;11.23;1.33;;;3.60;99.90;;;;;;5003471;28;20031;-73
2021/12/03 09:11:36;;;;;;;16.23;1.52;;;3.60;99.90;;;;;;4986361;28;20030;-73
2021/12/03 09:14:10;;;;;;;8.68;1.02;;;3.60;99.90;;;;;;5004875;28;20042;-73
2021/12/03 09:16:35;;;;;;;13.45;3.13;;;3.60;99.90;;;;;;4987442;28;20026;-73
2021/12/03 09:19:03;;;;;;;13.52;1.77;;;3.70;99.90;;;;;;5005874;28;20034;-73
2021/12/03 09:21:34;;;;;;;10.18;1.70;;;3.70;99.90;;;;;;4986883;28;20507;-73
2021/12/03 09:26:29;;;;;;;15.90;1.55;;;3.80;99.90;;;;;;5004051;28;20042;-74
2021/12/03 09:29:01;;;;;;;11.80;1.70;;;3.80;99.90;;;;;;4999333;28;20030;-74
2021/12/03 09:31:27;;;;;;;9.55;0.77;;;3.90;99.90;;;;;;5003409;28;20022;-74
2021/12/03 09:33:53;;;;;;;9.82;1.73;;;4.10;99.90;;;;;;4984352;28;20022;-73
2021/12/03 09:36:18;;;;;;;11.43;1.88;;;4.10;99.90;;;;;;5001833;28;20395;-74
2021/12/03 09:38:44;;;;;;;6.03;1.02;;;4.00;99.90;;;;;;4985699;28;20038;-74
2021/12/03 09:41:17;;;;;;;3.53;0.60;;;4.10;99.90;;;;;;5002414;28;20073;-75
2021/12/03 09:43:47;;;;;;;6.95;0.63;;;4.10;99.90;;;;;;4984624;28;20034;-74
2021/12/03 09:51:17;;;;;;;5.05;0.80;;;4.30;99.90;;;;;;5004289;28;20042;-74
2021/12/03 09:56:11;;;;;;;5.35;0.30;;;4.20;99.90;;;;;;5001181;28;20030;-75
2021/12/03 09:59:16;;;;;;;7.77;0.67;;;4.30;99.90;;;;;;4984092;28;20027;-74
2021/12/03 10:15:30;;;;;;;6.30;0.77;;;4.30;99.90;;;;;;4988681;28;20230;-74
2021/12/03 10:37:38;;;;;;;7.43;0.32;;;4.40;99.90;;;;;;5007527;28;20034;-74
2021/12/03 10:40:53;;;;;;;16.90;0.95;;;4.30;99.90;;;;;;4990146;28;20025;-74
2021/12/03 10:49:01;;;;;;;9.00;0.97;;;4.20;99.90;;;;;;5007838;28;20045;-74
2021/12/03 11:27:13;;;;;;;8.90;0.80;;;4.30;99.90;;;;;;5006161;28;20038;-75
2021/12/03 11:33:47;;;;;;;9.05;1.65;;;4.40;99.90;;;;;;5006305;28;20034;-74
2021/12/03 11:43:44;;;;;;;4.25;0.50;;;4.50;99.90;;;;;;4985242;28;20085;-74
2021/12/03 12:13:00;;;;;;;4.57;0.38;;;4.80;99.90;;;;;;5004529;28;20118;-74
2021/12/03 13:04:05;;;;;;;5.80;0.50;;;4.90;99.90;;;;;;5003959;28;20124;-74
2021/12/03 13:19:30;;;;;;;4.80;0.52;;;4.70;99.90;;;;;;5002226;28;20031;-73
2021/12/03 14:06:26;;;;;;;2.83;1.23;;;4.30;99.90;;;;;;5002003;28;20049;-73
2021/12/03 14:09:13;;;;;;;;;;;4.40;99.90;;;;;;5001937;28;20130;-73
2021/12/03 14:34:45;;;;;;;3.55;1.90;;;4.40;99.90;;;;;;5001744;28;20073;-73
2021/12/03 14:42:48;;;;;;;4.35;2.35;;;4.20;99.90;;;;;;5002764;28;20062;-73
2021/12/03 14:45:01;;;;;;;3.58;2.60;;;4.20;99.90;;;;;;4988076;28;20498;-73
2021/12/03 14:47:52;;;;;;;3.25;1.92;;;4.20;99.90;;;;;;5000240;28;20026;-73
2021/12/03 14:55:34;;;;;;;6.47;2.88;;;4.20;99.90;;;;;;5001178;28;20030;-73
2021/12/03 14:58:08;;;;;;;4.72;2.78;;;4.20;99.90;;;;;;4983269;28;20117;-73
2021/12/03 15:06:12;;;;;;;3.70;3.20;;;4.20;99.90;;;;;;5001946;28;20037;-73
2021/12/03 15:08:53;;;;;;;7.10;2.25;;;4.20;99.90;;;;;;4983819;28;20081;-73
2021/12/03 15:12:04;;;;;;;4.30;2.88;;;4.20;99.90;;;;;;4984190;28;20060;-74
2021/12/03 15:27:27;;;;;;;5.28;3.13;;;4.20;99.90;;;;;;5001307;28;20117;-73
2021/12/03 16:05:46;;;;;;;6.40;3.83;;;4.30;99.90;;;;;;4999815;28;20399;-73
2021/12/03 16:08:27;;;;;;;7.28;3.92;;;4.30;99.90;;;;;;4998799;28;20380;-73
2021/12/03 16:14:20;;;;;;;7.28;4.85;;;4.30;99.90;;;;;;4956168;28;20038;-74
2021/12/03 16:17:07;;;;;;;7.90;4.03;;;4.30;99.90;;;;;;5000387;28;20057;-73
2021/12/03 16:22:30;;;;;;;10.77;5.55;;;4.30;99.90;;;;;;4999934;28;20065;-75
2021/12/03 16:44:07;;;;;;;8.73;5.68;;;4.40;99.90;;;;;;5000224;28;20450;-74
2021/12/03 16:46:54;;;;;;;10.10;6.65;;;4.40;99.90;;;;;;4999455;28;20372;-74
2021/12/03 16:49:56;;;;;;;7.75;4.68;;;4.40;99.90;;;;;;4999454;28;20097;-74
2021/12/03 16:52:21;;;;;;;9.63;4.65;;;4.40;99.90;;;;;;4999183;28;20065;-74
2021/12/03 16:54:54;;;;;;;9.02;5.53;;;4.50;99.90;;;;;;4982445;28;20109;-74
2021/12/03 16:57:19;;;;;;;11.15;6.05;;;4.40;99.90;;;;;;4999370;28;20069;-74
2021/12/03 16:59:46;;;;;;;11.70;6.35;;;4.40;99.90;;;;;;4998435;28;20435;-74
2021/12/03 17:02:21;;;;;;;8.52;5.10;;;4.40;99.90;;;;;;4998955;28;20491;-74
2021/12/03 17:12:51;;;;;;;11.77;6.90;;;4.30;99.90;;;;;;4984353;28;20029;-74
2021/12/03 17:45:13;;;;;;;13.15;6.93;;;4.50;99.90;;;;;;4982465;28;20568;-75
2021/12/03 17:47:52;;;;;;;13.32;6.97;;;4.50;99.90;;;;;;4995457;28;20052;-75
2021/12/03 17:53:23;;;;;;;12.13;6.90;;;4.60;99.90;;;;;;4994333;28;20451;-76
2021/12/03 17:56:05;;;;;;;12.18;6.32;;;4.50;99.90;;;;;;4976898;28;20114;-76
2021/12/03 17:58:35;;;;;;;9.30;6.72;;;4.60;99.90;;;;;;4995262;28;20029;-76
2021/12/03 18:01:15;;;;;;;12.27;6.57;;;4.60;99.90;;;;;;4994587;28;20101;-76
2021/12/03 18:09:19;;;;;;;12.32;6.93;;;4.60;99.90;;;;;;4995418;28;20033;-76
2021/12/03 18:12:15;;;;;;;13.40;6.28;;;4.60;99.90;;;;;;4994821;28;20030;-76
2021/12/03 18:17:47;;;;;;;11.27;6.72;;;4.60;99.90;;;;;;4994695;28;20081;-76
2021/12/03 18:52:45;;;;;;;12.45;5.82;;;4.70;99.90;;;;;;5000091;28;20038;-73
2021/12/03 18:55:35;;;;;;;10.82;6.07;;;4.70;99.90;;;;;;5001552;28;20030;-75
2021/12/03 18:58:02;;;;;;;12.18;6.40;;;4.70;99.90;;;;;;5000125;28;20037;-75
2021/12/03 19:00:31;;;;;;;11.07;5.85;;;4.70;99.90;;;;;;5001369;28;20030;-74
2021/12/03 19:02:58;;;;;;;;;;;4.70;99.90;;;;;;5000291;28;20093;-76
2021/12/03 19:05:43;;;;;;;11.90;5.50;;;4.70;99.90;;;;;;4983366;28;19909;-75
2021/12/03 19:08:13;;;;;;;12.68;6.57;;;4.70;99.90;;;;;;4964403;28;20484;-74
2021/12/03 19:10:45;;;;;;;10.25;5.65;;;4.70;99.90;;;;;;4982321;28;20022;-75
2021/12/03 19:13:20;;;;;;;8.75;4.80;;;4.70;99.90;;;;;;4999873;28;20490;-75
2021/12/03 19:15:48;;;;;;;13.77;6.15;;;4.60;99.90;;;;;;4979773;28;20018;-75
2021/12/03 19:18:14;;;;;;;13.15;6.00;;;4.60;99.90;;;;;;4979693;28;20029;-75
2021/12/03 19:20:42;;;;;;;11.77;5.95;;;4.60;99.90;;;;;;4997276;28;20034;-75
2021/12/03 19:23:08;;;;;;;10.30;5.47;;;4.60;99.90;;;;;;4997501;28;20018;-75
2021/12/03 19:25:35;;;;;;;11.27;6.63;;;4.60;99.90;;;;;;4980442;28;20172;-75
2021/12/03 19:28:00;;;;;;;13.07;6.65;;;4.60;99.90;;;;;;4979972;28;20118;-76
2021/12/03 19:30:26;;;;;;;11.55;6.28;;;4.50;99.90;;;;;;4979757;28;20392;-76
2021/12/03 19:32:52;;;;;;;13.50;7.03;;;4.60;99.90;;;;;;4997514;28;20027;-75
2021/12/03 19:35:17;;;;;;;14.63;6.55;;;4.60;99.90;;;;;;4980208;28;20034;-75
2021/12/03 19:37:45;;;;;;;13.73;7.00;;;4.60;99.90;;;;;;4979623;28;20021;-75
2021/12/03 19:40:12;;;;;;;11.80;6.90;;;6.20;99.90;;;;;;4997332;28;20088;-76
2021/12/03 19:43:14;;;;;;;8.82;4.93;;;4.70;99.90;;;;;;4997616;28;20408;-76
2021/12/03 19:45:34;;;;;;;11.75;6.13;;;4.70;99.90;;;;;;4993708;28;20065;-76
2021/12/03 19:50:37;;;;;;;10.52;5.70;;;4.60;99.90;;;;;;4997349;28;20057;-75
2021/12/03 19:55:33;;;;;;;10.23;5.22;;;4.60;99.90;;;;;;4978228;28;20038;-77
2021/12/03 19:57:59;;;;;;;12.13;5.75;;;4.60;99.90;;;;;;4965923;28;20025;-75
2021/12/03 20:00:26;;;;;;;11.57;6.20;;;4.60;99.90;;;;;;4980920;28;20451;-76
2021/12/03 20:02:52;;;;;;;11.25;5.68;;;4.60;99.90;;;;;;4996798;28;20022;-75
2021/12/03 20:05:17;;;;;;;11.23;6.15;;;4.60;99.90;;;;;;4996868;28;20034;-75
2021/12/03 20:07:44;;;;;;;11.25;5.72;;;4.60;99.90;;;;;;4979360;28;20092;-75
2021/12/03 20:10:11;;;;;;;10.60;5.88;;;4.60;99.90;;;;;;4980573;28;20034;-75
2021/12/03 20:12:38;;;;;;;9.90;5.60;;;4.60;99.90;;;;;;4979432;28;20022;-75